Time;durP1;ratioP1;P1;durP2;ratioP2;P2;SDS_P1;SDS_P2;PMS_P1;PMS_P2;Temp;Humidity;BMP_temperature;BMP_pressure;BME280_temperature;BME280_humidity;BME280_pressure;Samples;Min_cycle;Max_cycle;Signal;HPM_P1;HPM_P2
2023/12/05 00:00:31;;;;;;;;;;;;;;;7.49;60.56;98750.78;4941896;28;8054;-75
2023/12/05 00:02:56;;;;;;;;;;;;;;;7.51;60.87;98753.38;4957701;28;6783;-75
2023/12/05 00:05:22;;;;;;;;;;;;;;;7.53;60.47;98749.19;4948737;28;6833;-75
2023/12/05 00:07:47;;;;;;;;;;;;;;;7.53;60.49;98744.09;4965583;28;6784;-75
2023/12/05 00:10:13;;;;;;;;;;;;;;;7.56;60.12;98740.78;4944756;28;8627;-75
2023/12/05 00:12:38;;;;;;;;;;;;;;;7.56;60.31;98739.09;4948334;28;7193;-75
2023/12/05 00:15:04;;;;;;;;;;;;;;;7.56;60.15;98735.69;4947747;28;8918;-75
2023/12/05 00:17:30;;;;;;;;;;;;;;;7.56;60.32;98736.56;4941247;28;8521;-75
2023/12/05 00:19:55;;;;;;;;;;;;;;;7.57;60.40;98735.75;4952508;28;6887;-75
2023/12/05 00:22:21;;;;;;;;;;;;;;;7.57;60.19;98733.19;4969121;28;6856;-75
2023/12/05 00:24:46;;;;;;;;;;;;;;;7.58;61.10;98731.50;4948227;28;7667;-75
2023/12/05 00:27:12;;;;;;;;;;;;;;;7.60;61.24;98728.19;4967458;28;6776;-75
2023/12/05 00:29:37;;;;;;;;;;;;;;;7.60;60.35;98728.19;4965760;28;6964;-75
2023/12/05 00:32:03;;;;;;;;;;;;;;;7.63;60.56;98724.88;4950083;28;6780;-75
2023/12/05 00:34:28;;;;;;;;;;;;;;;7.64;60.52;98729.16;4964303;28;7208;-75
2023/12/05 00:36:54;;;;;;;;;;;;;;;7.64;60.19;98721.50;4952465;28;6943;-75
2023/12/05 00:39:20;;;;;;;;;;;;;;;7.68;60.95;98722.47;4961332;28;7074;-75
2023/12/05 00:41:46;;;;;;;;;;;;;;;7.68;60.60;98720.81;4950327;28;6971;-75
2023/12/05 00:44:12;;;;;;;;;;;;;;;7.71;60.83;98726.00;4952508;28;6792;-75
2023/12/05 00:46:38;;;;;;;;;;;;;;;7.75;60.38;98721.88;4957075;28;6776;-75
2023/12/05 00:49:03;;;;;;;;;;;;;;;7.74;61.10;98720.97;4969586;28;7194;-75
2023/12/05 00:51:29;;;;;;;;;;;;;;;7.77;60.82;98720.22;4969288;28;6804;-75
2023/12/05 00:53:54;;;;;;;;;;;;;;;7.80;60.43;98717.75;4961503;28;6800;-75
2023/12/05 00:56:20;;;;;;;;;;;;;;;7.80;60.91;98722.88;4945650;28;7259;-75
2023/12/05 00:58:46;;;;;;;;;;;;;;;7.81;60.17;98719.50;4950522;28;7074;-75
2023/12/05 01:01:11;;;;;;;;;;;;;;;7.84;60.44;98729.81;4964130;28;8012;-75
2023/12/05 01:03:37;;;;;;;;;;;;;;;7.86;60.84;98724.75;4966895;28;6776;-75
2023/12/05 01:06:03;;;;;;;;;;;;;;;7.85;60.39;98723.91;4945905;28;7020;-75
2023/12/05 01:08:28;;;;;;;;;;;;;;;7.85;60.41;98726.44;4960365;28;7138;-75
2023/12/05 01:10:54;;;;;;;;;;;;;;;7.85;60.74;98730.66;4946240;28;7247;-75
2023/12/05 01:13:19;;;;;;;;;;;;;;;7.86;61.26;98723.06;4951454;28;6829;-75
2023/12/05 01:15:45;;;;;;;;;;;;;;;7.84;60.12;98722.16;4956272;28;6856;-75
2023/12/05 01:18:10;;;;;;;;;;;;;;;7.84;61.02;98719.63;4953265;28;6800;-76
2023/12/05 01:20:36;;;;;;;;;;;;;;;7.83;60.60;98717.00;4948834;28;6792;-76
2023/12/05 01:23:01;;;;;;;;;;;;;;;7.83;60.35;98719.56;4964641;28;6855;-75
2023/12/05 01:25:27;;;;;;;;;;;;;;;7.83;60.39;98719.56;4952162;28;6797;-76
2023/12/05 01:27:52;;;;;;;;;;;;;;;7.83;61.43;98719.56;4971765;28;6787;-76
2023/12/05 01:30:19;;;;;;;;;;;;;;;7.83;61.15;98722.97;4953334;28;6812;-76
2023/12/05 01:32:44;;;;;;;;;;;;;;;7.83;60.42;98717.00;4949188;28;6804;-76
2023/12/05 01:35:09;;;;;;;;;;;;;;;7.83;60.20;98712.78;4950777;28;6848;-76
2023/12/05 01:37:37;;;;;;;;;;;;;;;7.85;61.14;98713.69;4963711;28;6859;-77
2023/12/05 01:40:05;;;;;;;;;;;;;;;7.87;61.36;98704.41;4967257;28;7264;-76
2023/12/05 01:42:35;;;;;;;;;;;;;;;7.90;61.43;98709.59;4950721;28;6870;-76
2023/12/05 01:45:00;;;;;;;;;;;;;;;7.94;60.76;98707.16;4949829;28;6808;-76
2023/12/05 01:47:26;;;;;;;;;;;;;;;7.97;60.49;98709.78;4951081;28;6968;-76
2023/12/05 01:49:51;;;;;;;;;;;;;;;7.99;61.33;98714.13;4961388;28;7006;-76
2023/12/05 01:52:17;;;;;;;;;;;;;;;8.01;61.42;98712.47;4963853;28;7261;-76
2023/12/05 01:54:43;;;;;;;;;;;;;;;8.04;60.80;98711.72;4940450;28;6863;-76
2023/12/05 01:57:09;;;;;;;;;;;;;;;8.06;60.85;98712.63;4952076;28;7234;-76
2023/12/05 01:59:35;;;;;;;;;;;;;;;8.07;61.07;98706.69;4950220;28;7218;-76
2023/12/05 02:02:01;;;;;;;;;;;;;;;8.09;60.77;98705.06;4939732;28;6779;-76
2023/12/05 02:04:29;;;;;;;;;;;;;;;8.10;61.38;98696.56;4963279;28;6991;-76
2023/12/05 02:06:54;;;;;;;;;;;;;;;8.10;60.50;98699.13;4966985;28;7194;-76
2023/12/05 02:09:22;;;;;;;;;;;;;;;8.13;61.08;98695.81;4915795;28;7217;-76
2023/12/05 02:11:48;;;;;;;;;;;;;;;8.13;61.03;98699.25;4960569;28;6951;-76
2023/12/05 02:14:13;;;;;;;;;;;;;;;8.13;60.87;98696.69;4969636;28;7256;-76
2023/12/05 02:16:48;;;;;;;;;;;;;;;8.14;61.39;98695.00;4953254;28;6934;-76
2023/12/05 02:19:42;;;;;;;;;;;;;;;8.13;61.42;98699.25;4948637;28;6805;-75
2023/12/05 02:22:17;;;;;;;;;;;;;;;8.11;60.76;98695.78;4944868;28;6816;-75
2023/12/05 02:25:17;;;;;;;;;;;;;;;8.11;61.04;98690.69;4966280;28;7057;-75
2023/12/05 02:27:42;;;;;;;;;;;;;;;8.10;60.65;98694.03;4950201;28;7267;-75
2023/12/05 02:30:10;;;;;;;;;;;;;;;8.10;61.66;98688.91;4930435;28;7128;-76
2023/12/05 02:32:35;;;;;;;;;;;;;;;8.11;61.11;98694.91;4962747;28;11629;-75
2023/12/05 02:35:02;;;;;;;;;;;;;;;8.10;60.96;98688.91;4946528;28;6833;-75
2023/12/05 02:37:34;;;;;;;;;;;;;;;8.10;61.01;98693.16;4951229;28;6984;-75
2023/12/05 02:40:17;;;;;;;;;;;;;;;8.09;61.49;98694.00;4968511;28;6812;-75
2023/12/05 02:42:44;;;;;;;;;;;;;;;8.08;61.03;98689.72;4948973;28;7261;-75
2023/12/05 02:45:17;;;;;;;;;;;;;;;8.08;60.90;98689.72;4947300;28;7326;-75
2023/12/05 02:47:46;;;;;;;;;;;;;;;8.08;61.54;98688.00;4927093;28;7273;-75
2023/12/05 02:50:11;;;;;;;;;;;;;;;8.11;61.00;98690.69;4959937;28;6882;-75
2023/12/05 02:52:37;;;;;;;;;;;;;;;8.10;60.75;98688.91;4948268;28;6947;-75
2023/12/05 02:55:02;;;;;;;;;;;;;;;8.11;61.78;98683.03;4945455;28;7312;-75
2023/12/05 02:57:28;;;;;;;;;;;;;;;8.12;60.75;98689.84;4941888;28;6939;-75
2023/12/05 02:59:53;;;;;;;;;;;;;;;8.12;61.30;98689.84;4946212;28;7601;-75
2023/12/05 03:02:19;;;;;;;;;;;;;;;8.13;60.79;98688.16;4939655;28;6788;-75
2023/12/05 03:04:44;;;;;;;;;;;;;;;8.14;61.09;98690.75;4953229;28;6867;-75
2023/12/05 03:07:09;;;;;;;;;;;;;;;8.14;61.74;98683.09;4964768;28;7145;-75
2023/12/05 03:09:36;;;;;;;;;;;;;;;8.15;60.56;98683.97;4936333;28;7093;-75
2023/12/05 03:12:02;;;;;;;;;;;;;;;8.16;61.35;98686.56;4968010;28;6943;-75
2023/12/05 03:14:27;;;;;;;;;;;;;;;8.18;61.87;98679.81;4949074;28;6796;-75
2023/12/05 03:16:53;;;;;;;;;;;;;;;8.19;61.29;98688.34;4949062;28;6811;-75
2023/12/05 03:19:18;;;;;;;;;;;;;;;8.18;60.65;98678.97;4966678;28;6951;-75
2023/12/05 03:21:45;;;;;;;;;;;;;;;8.21;61.40;98691.81;4947612;28;6906;-75
2023/12/05 03:24:10;;;;;;;;;;;;;;;8.25;62.03;98692.78;4941154;28;7106;-75
2023/12/05 03:26:36;;;;;;;;;;;;;;;8.24;61.68;98679.13;4964284;28;6806;-75
2023/12/05 03:29:02;;;;;;;;;;;;;;;8.27;61.58;98683.47;4943875;28;6785;-75
2023/12/05 03:31:34;;;;;;;;;;;;;;;8.29;61.10;98682.69;4946194;28;6857;-75
2023/12/05 03:33:59;;;;;;;;;;;;;;;8.32;60.99;98672.56;4942522;28;6822;-75
2023/12/05 03:36:25;;;;;;;;;;;;;;;8.34;61.34;98670.91;4947140;28;7248;-75
2023/12/05 03:38:50;;;;;;;;;;;;;;;8.37;61.74;98669.28;4951548;28;7897;-75
2023/12/05 03:41:15;;;;;;;;;;;;;;;8.40;61.46;98679.59;4949585;28;6785;-75
2023/12/05 03:43:41;;;;;;;;;;;;;;;8.42;61.57;98672.84;4963671;28;6874;-81
2023/12/05 03:46:07;;;;;;;;;;;;;;;8.45;61.63;98678.03;4973756;28;6924;-75
2023/12/05 03:48:32;;;;;;;;;;;;;;;8.46;61.52;98679.78;4978817;28;7303;-74
2023/12/05 03:50:58;;;;;;;;;;;;;;;8.48;61.67;98678.97;4958870;28;7162;-78
2023/12/05 03:53:23;;;;;;;;;;;;;;;8.53;62.00;98685.94;4964931;28;7160;-79
2023/12/05 03:55:48;;;;;;;;;;;;;;;8.55;61.18;98692.84;4982763;28;6823;-76
2023/12/05 03:58:14;;;;;;;;;;;;;;;8.58;61.95;98686.94;4983547;28;6906;-76
2023/12/05 04:00:39;;;;;;;;;;;;;;;8.62;61.74;98693.88;4963702;28;8695;-78
2023/12/05 04:03:05;;;;;;;;;;;;;;;8.65;61.59;98690.56;4965212;28;8070;-76
2023/12/05 04:05:30;;;;;;;;;;;;;;;8.67;61.56;98694.84;4975399;28;6945;-74
2023/12/05 04:07:56;;;;;;;;;;;;;;;8.70;62.04;98702.63;4973695;28;6955;-75
2023/12/05 04:10:21;;;;;;;;;;;;;;;8.73;61.76;98702.69;4959956;28;6772;-76
2023/12/05 04:12:47;;;;;;;;;;;;;;;8.77;61.21;98705.34;4983049;28;7842;-76
2023/12/05 04:15:13;;;;;;;;;;;;;;;8.79;61.75;98704.56;4960801;28;7899;-77
2023/12/05 04:17:39;;;;;;;;;;;;;;;8.84;61.21;98704.69;4978156;28;7251;-76
2023/12/05 04:20:07;;;;;;;;;;;;;;;8.89;61.95;98705.69;4961130;28;6788;-77
2023/12/05 04:22:32;;;;;;;;;;;;;;;8.92;61.83;98700.66;4980735;28;7023;-77
2023/12/05 04:24:58;;;;;;;;;;;;;;;8.96;62.06;98706.72;4973440;28;7473;-77
2023/12/05 04:27:23;;;;;;;;;;;;;;;8.99;62.39;98710.22;4965242;28;6880;-78
2023/12/05 04:29:49;;;;;;;;;;;;;;;9.09;62.16;98705.38;4981839;28;8428;-75
2023/12/05 04:32:14;;;;;;;;;;;;;;;9.23;62.75;98711.69;4958641;28;6784;-78
2023/12/05 04:34:44;;;;;;;;;;;;;;;9.41;63.25;98702.78;4967109;28;6991;-80
2023/12/05 04:37:11;;;;;;;;;;;;;;;9.62;63.91;98699.03;4982860;28;6892;-78
2023/12/05 04:39:36;;;;;;;;;;;;;;;9.81;63.77;98696.06;4981522;28;6804;-81
2023/12/05 04:42:02;;;;;;;;;;;;;;;10.02;64.26;98699.97;4966784;28;8468;-77
2023/12/05 04:44:27;;;;;;;;;;;;;;;10.18;63.65;98706.28;4949321;28;6959;-80
2023/12/05 04:46:53;;;;;;;;;;;;;;;10.33;63.99;98707.47;4969469;28;6905;-75
2023/12/05 04:49:19;;;;;;;;;;;;;;;10.46;63.90;98708.63;4955981;28;6864;-79
2023/12/05 04:51:44;;;;;;;;;;;;;;;10.53;63.55;98698.53;4943377;28;7057;-80
2023/12/05 04:54:10;;;;;;;;;;;;;;;10.64;63.95;98705.56;4957080;28;7970;-75
2023/12/05 04:56:35;;;;;;;;;;;;;;;10.72;63.13;98703.16;4981804;28;6966;-76
2023/12/05 04:59:02;;;;;;;;;;;;;;;10.78;63.72;98713.53;4968522;28;7214;-77
2023/12/05 05:01:27;;;;;;;;;;;;;;;10.81;63.23;98714.47;4968014;28;6989;-78
2023/12/05 05:03:52;;;;;;;;;;;;;;;10.88;63.58;98714.59;4969772;28;7055;-75
2023/12/05 05:06:18;;;;;;;;;;;;;;;10.91;63.08;98714.66;4967573;28;6958;-79
2023/12/05 05:08:44;;;;;;;;;;;;;;;10.92;63.00;98714.69;4960625;28;7747;-75
2023/12/05 05:11:09;;;;;;;;;;;;;;;10.95;63.05;98719.88;4966281;28;7543;-74
2023/12/05 05:13:35;;;;;;;;;;;;;;;10.98;62.93;98716.50;4973179;28;6768;-75
2023/12/05 05:16:01;;;;;;;;;;;;;;;10.99;63.09;98720.81;4968289;28;6816;-78
2023/12/05 05:18:26;;;;;;;;;;;;;;;11.03;62.75;98721.72;4968957;28;6783;-75
2023/12/05 05:20:52;;;;;;;;;;;;;;;11.05;63.39;98720.06;4966948;28;6833;-79
2023/12/05 05:23:17;;;;;;;;;;;;;;;11.08;62.95;98720.09;4969312;28;7236;-76
2023/12/05 05:25:43;;;;;;;;;;;;;;;11.10;63.02;98728.69;4964133;28;6947;-78
2023/12/05 05:28:09;;;;;;;;;;;;;;;11.11;63.22;98730.44;4967983;28;6891;-75
2023/12/05 05:30:35;;;;;;;;;;;;;;;11.14;62.76;98727.03;4970125;28;6780;-81
2023/12/05 05:33:00;;;;;;;;;;;;;;;11.16;63.08;98730.53;4967664;28;7011;-76
2023/12/05 05:35:26;;;;;;;;;;;;;;;11.17;63.25;98732.25;4963597;28;6805;-79
2023/12/05 05:37:51;;;;;;;;;;;;;;;11.18;62.57;98736.53;4966212;28;6788;-79
2023/12/05 05:40:17;;;;;;;;;;;;;;;11.19;62.68;98746.81;4960037;28;6993;-80
2023/12/05 05:42:42;;;;;;;;;;;;;;;11.21;62.74;98739.16;4936586;28;7014;-79
2023/12/05 05:45:08;;;;;;;;;;;;;;;11.22;62.71;98733.19;4949468;28;6784;-75
2023/12/05 05:47:34;;;;;;;;;;;;;;;11.22;63.14;98749.44;4958675;28;6980;-76
2023/12/05 05:49:59;;;;;;;;;;;;;;;11.22;62.63;98744.31;4965750;28;6978;-80
2023/12/05 05:52:25;;;;;;;;;;;;;;;11.22;63.06;98754.56;4968821;28;6860;-78
2023/12/05 05:54:50;;;;;;;;;;;;;;;11.21;62.79;98737.47;4949223;28;6844;-79
2023/12/05 05:57:16;;;;;;;;;;;;;;;11.22;62.63;98749.44;4949935;28;6856;-79
2023/12/05 05:59:45;;;;;;;;;;;;;;;11.22;62.61;98754.56;4973843;28;7462;-81
2023/12/05 06:02:12;;;;;;;;;;;;;;;11.20;62.09;98751.13;4951786;28;7386;-79
2023/12/05 06:04:41;;;;;;;;;;;;;;;11.21;62.73;98760.53;4956965;28;6808;-76
2023/12/05 06:07:07;;;;;;;;;;;;;;;11.19;62.60;98757.06;4951934;28;6825;-76
2023/12/05 06:09:33;;;;;;;;;;;;;;;11.19;62.60;98757.06;4942197;28;6842;-76
2023/12/05 06:11:58;;;;;;;;;;;;;;;11.19;63.00;98754.50;4948768;28;7223;-76
2023/12/05 06:14:24;;;;;;;;;;;;;;;11.18;62.26;98757.91;4945330;28;6772;-76
2023/12/05 06:16:49;;;;;;;;;;;;;;;11.19;62.60;98754.50;4948950;28;6934;-76
2023/12/05 06:19:15;;;;;;;;;;;;;;;11.19;62.47;98759.63;4943180;28;6772;-76
2023/12/05 06:21:40;;;;;;;;;;;;;;;11.18;62.57;98760.47;4949845;28;6788;-76
2023/12/05 06:24:08;;;;;;;;;;;;;;;11.19;62.34;98769.88;4946190;28;6779;-76
2023/12/05 06:26:34;;;;;;;;;;;;;;;11.20;62.38;98776.78;4948964;28;7840;-76
2023/12/05 06:29:03;;;;;;;;;;;;;;;11.18;62.47;98765.59;4950136;28;6780;-76
2023/12/05 06:31:28;;;;;;;;;;;;;;;11.18;62.65;98768.16;4951861;28;7168;-76
2023/12/05 06:33:54;;;;;;;;;;;;;;;11.18;62.57;98770.72;4948094;28;7151;-76
2023/12/05 06:36:19;;;;;;;;;;;;;;;11.19;62.50;98779.28;4951760;28;6792;-76
2023/12/05 06:38:45;;;;;;;;;;;;;;;11.18;62.70;98786.09;4933966;28;7150;-76
2023/12/05 06:41:10;;;;;;;;;;;;;;;11.17;62.34;98786.94;4948288;28;6980;-76
2023/12/05 06:43:36;;;;;;;;;;;;;;;11.18;62.59;98792.94;4948481;28;8866;-76
2023/12/05 06:46:01;;;;;;;;;;;;;;;11.18;62.40;98791.25;4947571;28;7058;-76
2023/12/05 06:48:27;;;;;;;;;;;;;;;11.19;62.59;98800.66;4947668;28;6792;-76
2023/12/05 06:50:52;;;;;;;;;;;;;;;11.19;62.91;98798.09;4936224;28;7162;-76
2023/12/05 06:53:18;;;;;;;;;;;;;;;11.20;62.76;98799.84;4952376;28;6796;-76
2023/12/05 06:55:43;;;;;;;;;;;;;;;11.24;62.46;98805.88;4947441;28;6780;-76
2023/12/05 06:58:09;;;;;;;;;;;;;;;11.28;62.47;98806.81;4933981;28;7424;-76
2023/12/05 07:00:34;;;;;;;;;;;;;;;11.28;62.51;98810.25;4945369;28;8063;-76
2023/12/05 07:03:00;;;;;;;;;;;;;;;11.30;62.49;98815.38;4963057;28;8008;-76
2023/12/05 07:05:25;;;;;;;;;;;;;;;11.29;62.23;98819.66;4945187;28;7233;-76
2023/12/05 07:07:51;;;;;;;;;;;;;;;11.31;62.00;98817.16;4918992;28;7001;-77
2023/12/05 07:10:17;;;;;;;;;;;;;;;11.30;61.92;98829.09;4942389;28;7051;-76
2023/12/05 07:12:43;;;;;;;;;;;;;;;11.30;61.77;98818.84;4942745;28;8167;-77
2023/12/05 07:15:09;;;;;;;;;;;;;;;11.30;61.61;98828.22;4950026;28;7051;-76
2023/12/05 07:17:34;;;;;;;;;;;;;;;11.28;61.71;98832.44;4949513;28;7000;-75
2023/12/05 07:20:00;;;;;;;;;;;;;;;11.28;62.49;98842.72;4951481;28;6800;-75
2023/12/05 07:22:26;;;;;;;;;;;;;;;11.26;61.91;98840.13;4952708;28;6939;-75
2023/12/05 07:24:51;;;;;;;;;;;;;;;11.25;61.51;98843.50;4947082;28;7208;-75
2023/12/05 07:27:17;;;;;;;;;;;;;;;11.22;62.02;98841.78;4943970;28;6829;-75
2023/12/05 07:29:42;;;;;;;;;;;;;;;11.21;61.88;98846.84;4942009;28;7896;-75
2023/12/05 07:32:08;;;;;;;;;;;;;;;11.20;61.73;98843.44;4944507;28;6791;-75
2023/12/05 07:34:33;;;;;;;;;;;;;;;11.18;62.00;98854.50;4951956;28;7789;-75
2023/12/05 07:36:59;;;;;;;;;;;;;;;11.17;62.26;98851.06;4964633;28;6787;-75
2023/12/05 07:39:25;;;;;;;;;;;;;;;11.16;61.64;98853.59;4948293;28;6792;-75
2023/12/05 07:41:50;;;;;;;;;;;;;;;11.15;61.67;98862.09;4952653;28;7031;-75
2023/12/05 07:44:17;;;;;;;;;;;;;;;11.15;62.16;98862.09;4948486;28;6882;-75
2023/12/05 07:46:43;;;;;;;;;;;;;;;11.14;61.66;98873.19;4937679;28;8003;-75
2023/12/05 07:49:09;;;;;;;;;;;;;;;11.13;62.14;98869.78;4934293;28;6835;-75
2023/12/05 07:51:34;;;;;;;;;;;;;;;11.13;61.94;98868.91;4935434;28;7023;-75
2023/12/05 07:54:00;;;;;;;;;;;;;;;11.11;62.19;98880.00;4948345;28;7244;-75
2023/12/05 07:56:25;;;;;;;;;;;;;;;11.12;61.70;98883.44;4945439;28;6780;-74
2023/12/05 07:58:51;;;;;;;;;;;;;;;11.11;61.93;98880.00;4959809;28;6860;-75
2023/12/05 08:01:16;;;;;;;;;;;;;;;11.11;62.10;98876.59;4935442;28;8610;-75
2023/12/05 08:03:42;;;;;;;;;;;;;;;11.11;61.62;98881.72;4941398;28;7948;-75
2023/12/05 08:06:07;;;;;;;;;;;;;;;11.10;61.96;98880.84;4945051;28;6811;-75
2023/12/05 08:08:34;;;;;;;;;;;;;;;11.10;61.89;98879.97;4949810;28;7228;-75
2023/12/05 08:11:00;;;;;;;;;;;;;;;11.10;61.93;98893.66;4959722;28;7250;-75
2023/12/05 08:13:26;;;;;;;;;;;;;;;11.10;61.68;98897.91;4942458;28;6921;-75
2023/12/05 08:15:55;;;;;;;;;;;;;;;11.10;62.06;98898.78;4946954;28;6978;-75
2023/12/05 08:18:20;;;;;;;;;;;;;;;11.10;61.86;98898.78;4952832;28;7410;-75
2023/12/05 08:20:46;;;;;;;;;;;;;;;11.11;61.81;98908.22;4944368;28;6788;-75
2023/12/05 08:23:12;;;;;;;;;;;;;;;11.11;62.04;98902.22;4958085;28;7845;-75
2023/12/05 08:25:38;;;;;;;;;;;;;;;11.12;61.81;98909.09;4931941;28;7323;-73
2023/12/05 08:28:03;;;;;;;;;;;;;;;11.12;61.77;98914.22;4961385;28;7238;-75
2023/12/05 08:30:28;;;;;;;;;;;;;;;11.11;61.52;98905.63;4949291;28;7268;-72
2023/12/05 08:32:57;;;;;;;;;;;;;;;11.13;61.82;98910.81;4952844;28;6951;-72
2023/12/05 08:35:23;;;;;;;;;;;;;;;11.12;61.67;98909.09;4951951;28;6999;-72
2023/12/05 08:37:48;;;;;;;;;;;;;;;11.12;62.25;98914.22;4945102;28;7626;-75
2023/12/05 08:40:14;;;;;;;;;;;;;;;11.12;62.04;98919.34;4964237;28;7500;-74
2023/12/05 08:42:42;;;;;;;;;;;;;;;11.13;61.97;98921.06;4968089;28;6851;-73
2023/12/05 08:45:11;;;;;;;;;;;;;;;11.11;62.07;98915.91;4971643;28;7003;-72
2023/12/05 08:47:38;;;;;;;;;;;;;;;11.13;62.18;98915.06;4963533;28;8171;-73
2023/12/05 08:50:04;;;;;;;;;;;;;;;11.12;61.97;98921.91;4955787;28;7220;-73
2023/12/05 08:52:29;;;;;;;;;;;;;;;11.11;62.15;98918.47;4952366;28;6976;-72
2023/12/05 08:54:55;;;;;;;;;;;;;;;11.12;62.16;98919.34;4953653;28;6772;-74
2023/12/05 08:57:20;;;;;;;;;;;;;;;11.11;61.83;98927.88;4923301;28;7263;-73
2023/12/05 08:59:46;;;;;;;;;;;;;;;11.11;61.56;98920.19;4965322;28;6956;-75
2023/12/05 09:02:11;;;;;;;;;;;;;;;11.11;61.76;98927.88;4968591;28;6840;-73
2023/12/05 09:04:37;;;;;;;;;;;;;;;11.11;62.11;98933.00;4955701;28;6917;-75
2023/12/05 09:07:03;;;;;;;;;;;;;;;11.12;61.57;98934.72;4964357;28;7409;-73
2023/12/05 09:09:28;;;;;;;;;;;;;;;11.11;61.70;98936.41;4945858;28;7186;-75
2023/12/05 09:11:54;;;;;;;;;;;;;;;11.09;61.78;98938.09;4946927;28;7352;-72
2023/12/05 09:14:19;;;;;;;;;;;;;;;11.09;61.61;98950.03;4953587;28;6814;-73
2023/12/05 09:16:45;;;;;;;;;;;;;;;11.09;62.14;98950.03;4958049;28;6860;-73
2023/12/05 09:19:11;;;;;;;;;;;;;;;11.08;61.92;98955.97;4954417;28;6855;-75
2023/12/05 09:21:36;;;;;;;;;;;;;;;11.06;61.76;98957.66;4937644;28;7154;-72
2023/12/05 09:24:02;;;;;;;;;;;;;;;11.05;62.26;98959.34;4952885;28;6792;-73
2023/12/05 09:26:27;;;;;;;;;;;;;;;11.04;61.78;98956.75;4966561;28;7287;-74
2023/12/05 09:28:53;;;;;;;;;;;;;;;11.03;61.71;98966.13;4955965;28;6868;-75
2023/12/05 09:31:18;;;;;;;;;;;;;;;11.02;61.57;98969.53;4949461;28;7423;-72
2023/12/05 09:33:44;;;;;;;;;;;;;;;11.00;61.52;98968.63;4971115;28;7816;-74
2023/12/05 09:36:09;;;;;;;;;;;;;;;10.98;62.17;98968.59;4975426;28;6779;-79
2023/12/05 09:38:35;;;;;;;;;;;;;;;10.98;61.46;98972.88;4959377;28;6780;-75
2023/12/05 09:41:02;;;;;;;;;;;;;;;10.95;61.98;98980.47;4951312;28;6947;-82
2023/12/05 09:43:28;;;;;;;;;;;;;;;10.96;61.74;98984.75;4947027;28;6997;-82
2023/12/05 09:45:59;;;;;;;;;;;;;;;10.97;61.96;98986.53;4960080;28;6812;-82
2023/12/05 09:48:28;;;;;;;;;;;;;;;10.97;61.82;98987.38;4955339;28;6800;-81
2023/12/05 09:50:55;;;;;;;;;;;;;;;10.97;62.18;98992.50;4960301;28;7102;-82
2023/12/05 09:53:21;;;;;;;;;;;;;;;10.96;61.66;98985.63;4955566;28;7217;-80
2023/12/05 09:55:46;;;;;;;;;;;;;;;10.96;61.71;98995.00;4954750;28;7489;-83
2023/12/05 09:58:13;;;;;;;;;;;;;;;10.95;62.60;99001.84;4928939;28;8444;-79
2023/12/05 10:00:39;;;;;;;;;;;;;;;10.97;62.00;99007.03;4958776;28;6992;-79
2023/12/05 10:03:08;;;;;;;;;;;;;;;10.97;62.21;98995.06;4955051;28;6776;-82
2023/12/05 10:05:35;;;;;;;;;;;;;;;10.97;61.86;99002.75;4952613;28;6808;-80
2023/12/05 10:08:02;;;;;;;;;;;;;;;10.97;62.13;99002.75;4937984;28;7282;-78
2023/12/05 10:10:30;;;;;;;;;;;;;;;10.98;61.77;99004.47;4937805;28;7905;-80
2023/12/05 10:12:56;;;;;;;;;;;;;;;10.98;62.46;99004.47;4933293;28;7239;-80
2023/12/05 10:15:22;;;;;;;;;;;;;;;10.99;62.17;99005.38;4969191;28;6780;-81
2023/12/05 10:17:48;;;;;;;;;;;;;;;10.99;61.95;99000.25;4929707;28;7112;-82
2023/12/05 10:20:13;;;;;;;;;;;;;;;11.00;61.99;99009.66;4969277;28;7082;-82
2023/12/05 10:22:40;;;;;;;;;;;;;;;11.01;62.01;99003.69;4976485;28;6792;-79
2023/12/05 10:25:10;;;;;;;;;;;;;;;11.04;62.58;99014.00;4932104;28;6990;-75
2023/12/05 10:27:36;;;;;;;;;;;;;;;11.07;62.45;99008.09;4958317;28;6869;-80
2023/12/05 10:30:02;;;;;;;;;;;;;;;11.08;62.10;99010.72;4938525;28;6792;-82
2023/12/05 10:32:27;;;;;;;;;;;;;;;11.09;62.23;99012.44;4934813;28;7248;-75
2023/12/05 10:34:56;;;;;;;;;;;;;;;11.12;62.50;99001.41;4949125;28;6776;-82
2023/12/05 10:37:27;;;;;;;;;;;;;;;11.15;61.89;99021.97;4948956;28;7032;-75
2023/12/05 10:39:55;;;;;;;;;;;;;;;11.18;62.44;99011.78;4966319;28;6855;-80
2023/12/05 10:42:25;;;;;;;;;;;;;;;11.22;62.48;99015.28;4949952;28;6856;-80
2023/12/05 10:44:50;;;;;;;;;;;;;;;11.27;62.79;99020.53;4928302;28;8229;-81
2023/12/05 10:47:16;;;;;;;;;;;;;;;11.33;62.37;99018.94;4956058;28;6972;-81
2023/12/05 10:49:42;;;;;;;;;;;;;;;11.39;62.38;99020.78;4949809;28;6972;-83
2023/12/05 10:52:10;;;;;;;;;;;;;;;11.44;62.55;99019.22;4937831;28;7696;-82
2023/12/05 10:54:36;;;;;;;;;;;;;;;11.49;61.96;99011.63;4970328;28;7162;-80
2023/12/05 10:57:08;;;;;;;;;;;;;;;11.53;62.47;99021.97;4970803;28;6955;-81
2023/12/05 10:59:34;;;;;;;;;;;;;;;11.55;61.74;99022.03;4976173;28;6832;-79
2023/12/05 11:02:00;;;;;;;;;;;;;;;11.57;61.50;99027.16;4964698;28;6885;-83
2023/12/05 11:04:26;;;;;;;;;;;;;;;11.55;61.86;99028.84;4978312;28;6819;-80
2023/12/05 11:06:52;;;;;;;;;;;;;;;11.51;61.61;99026.22;4961784;28;6856;-79
2023/12/05 11:09:18;;;;;;;;;;;;;;;11.49;61.54;99034.69;4974507;28;7007;-78
2023/12/05 11:11:50;;;;;;;;;;;;;;;11.47;61.55;99037.22;4976632;28;6982;-79
2023/12/05 11:14:19;;;;;;;;;;;;;;;11.46;61.57;99038.06;4978824;28;7168;-77
2023/12/05 11:16:53;;;;;;;;;;;;;;;11.43;62.08;99035.44;4961996;28;7205;-81
2023/12/05 11:19:34;;;;;;;;;;;;;;;11.43;62.00;99039.69;4965142;28;7461;-79
2023/12/05 11:22:26;;;;;;;;;;;;;;;11.44;61.97;99038.84;4967790;28;6988;-79
2023/12/05 11:25:10;;;;;;;;;;;;;;;11.43;62.56;99039.69;4967634;28;7151;-75
2023/12/05 11:28:07;;;;;;;;;;;;;;;11.44;62.12;99041.41;4965650;28;6816;-79
2023/12/05 11:30:47;;;;;;;;;;;;;;;11.47;62.27;99044.06;4956154;28;6868;-81
2023/12/05 11:33:13;;;;;;;;;;;;;;;11.48;62.50;99046.66;4952493;28;6880;-78
2023/12/05 11:36:13;;;;;;;;;;;;;;;11.50;62.58;99052.72;4951308;28;6787;-80
2023/12/05 11:38:40;;;;;;;;;;;;;;;11.52;62.00;99051.03;4944106;28;7047;-81
2023/12/05 11:41:11;;;;;;;;;;;;;;;11.53;61.83;99050.19;4953397;28;7159;-79
2023/12/05 11:43:38;;;;;;;;;;;;;;;11.53;61.95;99050.19;4931900;28;7027;-79
2023/12/05 11:46:03;;;;;;;;;;;;;;;11.53;62.22;99060.47;4950365;28;6939;-80
2023/12/05 11:48:30;;;;;;;;;;;;;;;11.53;62.10;99060.47;4943675;28;7275;-81
2023/12/05 11:50:56;;;;;;;;;;;;;;;11.54;62.45;99056.22;4949795;28;6816;-78
2023/12/05 11:53:21;;;;;;;;;;;;;;;11.53;62.50;99060.47;4947585;28;7553;-79
2023/12/05 11:55:47;;;;;;;;;;;;;;;11.53;61.95;99065.59;4946707;28;6959;-75
2023/12/05 11:58:42;;;;;;;;;;;;;;;11.50;61.68;99060.41;4941074;28;7194;-75
2023/12/05 12:01:09;;;;;;;;;;;;;;;11.53;62.11;99064.72;4951821;28;6836;-74
2023/12/05 12:03:54;;;;;;;;;;;;;;;11.52;62.67;99063.00;4945012;28;7024;-75
2023/12/05 12:06:21;;;;;;;;;;;;;;;11.52;62.01;99063.88;4932931;28;8059;-75
2023/12/05 12:08:49;;;;;;;;;;;;;;;11.53;62.14;99070.72;4944091;28;6978;-75
2023/12/05 12:11:14;;;;;;;;;;;;;;;11.53;62.81;99070.72;4960354;28;6811;-75
2023/12/05 12:13:40;;;;;;;;;;;;;;;11.56;62.37;99069.06;4945525;28;6827;-75
2023/12/05 12:16:05;;;;;;;;;;;;;;;11.56;62.30;99071.63;4925452;28;7225;-75
2023/12/05 12:18:31;;;;;;;;;;;;;;;11.55;62.21;99078.47;4944604;28;6780;-75
2023/12/05 12:20:57;;;;;;;;;;;;;;;11.55;62.85;99068.22;4946370;28;8091;-75
2023/12/05 12:23:23;;;;;;;;;;;;;;;11.56;62.66;99095.59;4949979;28;7241;-75
2023/12/05 12:25:52;;;;;;;;;;;;;;;11.56;62.67;99089.59;4949532;28;6806;-75
2023/12/05 12:28:28;;;;;;;;;;;;;;;11.58;62.20;99103.31;4931449;28;7023;-74
2023/12/05 12:30:55;;;;;;;;;;;;;;;11.54;61.88;99104.97;4940866;28;7925;-75
2023/12/05 12:33:22;;;;;;;;;;;;;;;11.43;61.19;99112.41;4945904;28;7760;-74
2023/12/05 12:35:51;;;;;;;;;;;;;;;11.30;61.01;99125.75;4946464;28;7693;-75
2023/12/05 12:38:17;;;;;;;;;;;;;;;11.11;60.88;99113.34;4946995;28;7039;-74
2023/12/05 12:40:42;;;;;;;;;;;;;;;10.96;60.78;99129.22;4944978;28;6796;-74
2023/12/05 12:43:08;;;;;;;;;;;;;;;10.82;60.76;99130.56;4945582;28;7318;-74
2023/12/05 12:45:34;;;;;;;;;;;;;;;10.68;61.13;99140.44;4944298;28;6931;-74
2023/12/05 12:48:03;;;;;;;;;;;;;;;10.56;60.71;99141.81;4944887;28;7136;-75
2023/12/05 12:50:29;;;;;;;;;;;;;;;10.45;60.64;99143.19;4946811;28;6808;-75
2023/12/05 12:52:55;;;;;;;;;;;;;;;10.35;61.05;99154.88;4944739;28;7066;-75
2023/12/05 12:55:21;;;;;;;;;;;;;;;10.25;61.16;99147.75;4965375;28;7864;-75
2023/12/05 12:57:50;;;;;;;;;;;;;;;10.14;60.99;99148.28;4964893;28;6827;-75